Time;durP1;ratioP1;P1;durP2;ratioP2;P2;SDS_P1;SDS_P2;PMS_P1;PMS_P2;Temp;Humidity;BMP_temperature;BMP_pressure;BME280_temperature;BME280_humidity;BME280_pressure;Samples;Min_cycle;Max_cycle;Signal;HPM_P1;HPM_P2
2022/08/07 00:01:18;;;;;;;4.22;3.60;;;;;;;19.52;45.48;102529.16;5092113;28;20043;-71
2022/08/07 00:04:05;;;;;;;3.65;3.35;;;;;;;19.48;45.34;102527.66;5091075;28;20056;-71
2022/08/07 00:06:37;;;;;;;4.47;3.55;;;;;;;19.45;45.41;102518.84;5092471;28;20417;-71
2022/08/07 00:09:19;;;;;;;3.60;3.30;;;;;;;19.41;45.82;102523.69;5092166;28;20042;-70
2022/08/07 00:11:48;;;;;;;4.28;3.67;;;;;;;19.38;45.57;102520.34;5091614;28;20504;-72
2022/08/07 00:14:29;;;;;;;4.20;3.80;;;;;;;19.35;45.71;102518.75;5092248;28;20110;-72
2022/08/07 00:17:01;;;;;;;3.88;3.50;;;;;;;19.31;45.68;102519.97;5091920;28;20048;-72
2022/08/07 00:19:30;;;;;;;3.80;3.50;;;;;;;19.28;45.63;102520.22;5091649;28;20038;-72
2022/08/07 00:22:17;;;;;;;4.00;3.60;;;;;;;19.25;45.92;102521.31;5071775;28;20045;-72
2022/08/07 00:25:05;;;;;;;5.20;4.40;;;;;;;19.23;45.74;102522.44;5071900;28;20048;-71
2022/08/07 00:27:41;;;;;;;5.13;4.40;;;;;;;19.15;45.89;102508.59;5072402;28;20139;-72
2022/08/07 00:30:22;;;;;;;4.22;3.47;;;;;;;19.07;46.16;102516.50;5079434;28;20046;-71
2022/08/07 00:32:56;;;;;;;5.90;3.50;;;;;;;19.02;46.40;102512.28;5090784;28;20490;-71
2022/08/07 00:35:24;;;;;;;3.92;3.35;;;;;;;18.99;46.28;102506.22;5092074;28;20048;-71
2022/08/07 00:37:52;;;;;;;3.85;2.97;;;;;;;18.95;46.17;102497.44;5090888;28;20485;-71
2022/08/07 00:40:20;;;;;;;3.35;3.05;;;;;;;18.93;46.30;102499.41;5090674;28;20077;-72
2022/08/07 00:43:10;;;;;;;3.45;3.05;;;;;;;18.93;46.45;102504.00;5090637;28;20048;-71
2022/08/07 00:45:59;;;;;;;3.50;3.15;;;;;;;18.90;46.25;102496.94;5092091;28;20040;-70
2022/08/07 00:48:28;;;;;;;3.03;2.72;;;;;;;18.87;46.30;102497.19;5092041;28;20032;-70
2022/08/07 00:50:58;;;;;;;4.28;3.22;;;;;;;18.85;46.41;102501.88;5092025;28;20043;-72
2022/08/07 00:53:28;;;;;;;3.50;2.88;;;;;;;18.81;46.39;102499.53;5090550;28;20102;-71
2022/08/07 00:56:14;;;;;;;3.63;2.97;;;;;;;18.77;46.73;102493.47;5090822;28;20522;-71
2022/08/07 00:58:42;;;;;;;2.63;2.42;;;;;;;18.73;46.98;102492.84;5090166;28;20131;-71
2022/08/07 01:01:13;;;;;;;3.13;2.17;;;;;;;18.71;46.64;102488.50;5107780;28;20044;-71
2022/08/07 01:03:42;;;;;;;2.42;2.22;;;;;;;18.70;47.01;102492.22;5090628;28;20048;-71
2022/08/07 01:06:26;;;;;;;3.17;2.20;;;;;;;18.66;46.95;102488.00;5090741;28;20063;-71
2022/08/07 01:08:52;;;;;;;2.42;2.22;;;;;;;18.64;46.84;102487.28;5091632;28;20070;-72
2022/08/07 01:11:21;;;;;;;2.65;2.35;;;;;;;18.60;47.09;102485.75;5092096;28;20062;-71
2022/08/07 01:14:10;;;;;;;2.72;2.20;;;;;;;18.51;47.15;102478.28;5090811;28;20530;-72
2022/08/07 01:16:41;;;;;;;2.60;2.35;;;;;;;18.45;47.20;102478.75;5090735;28;20046;-71
2022/08/07 01:19:15;;;;;;;4.18;2.30;;;;;;;18.41;46.91;102475.41;5090629;28;20044;-72
2022/08/07 01:21:50;;;;;;;3.35;2.15;;;;;;;18.38;47.11;102484.69;5092135;28;20405;-72
2022/08/07 01:24:26;;;;;;;3.42;2.30;;;;;;;18.36;47.27;102475.78;5094978;28;20455;-71
2022/08/07 01:26:56;;;;;;;2.47;2.28;;;;;;;18.35;47.45;102481.34;5094718;28;20146;-71
2022/08/07 01:29:25;;;;;;;3.47;2.80;;;;;;;18.33;47.51;102484.19;5078210;28;20044;-71
2022/08/07 01:31:55;;;;;;;3.22;2.28;;;;;;;18.32;47.44;102478.84;5094525;28;20047;-72
2022/08/07 01:34:30;;;;;;;2.92;2.45;;;;;;;18.30;47.40;102478.97;5095290;28;20032;-72
2022/08/07 01:37:00;;;;;;;2.40;2.20;;;;;;;18.27;47.76;102475.63;5093759;28;20036;-71
2022/08/07 01:39:28;;;;;;;3.75;2.40;;;;;;;18.23;47.57;102472.28;5093502;28;20047;-72
2022/08/07 01:42:20;;;;;;;2.53;2.25;;;;;;;18.18;47.61;102468.19;5093906;28;20067;-71
2022/08/07 01:45:11;;;;;;;2.72;2.38;;;;;;;18.14;47.33;102467.56;5093878;28;20068;-71
2022/08/07 01:47:50;;;;;;;2.28;1.98;;;;;;;18.12;47.57;102471.38;5095015;28;20040;-70
2022/08/07 01:50:39;;;;;;;3.95;2.50;;;;;;;18.08;47.81;102468.91;5093474;28;20518;-71
2022/08/07 01:53:17;;;;;;;2.90;2.25;;;;;;;18.05;47.48;102463.69;5093618;28;20047;-71
2022/08/07 01:56:16;;;;;;;2.63;2.30;;;;;;;18.01;47.93;102464.91;5094899;28;20441;-72
2022/08/07 01:58:51;;;;;;;3.10;2.10;;;;;;;17.98;47.69;102467.00;5093441;28;20101;-72
2022/08/07 02:01:23;;;;;;;3.15;2.17;;;;;;;17.95;47.77;102459.94;5093576;28;20043;-72
2022/08/07 02:04:46;;;;;;;2.50;2.00;;;;;;;17.93;48.08;102461.06;5093391;27;20574;-71
2022/08/07 02:07:29;;;;;;;2.47;1.95;;;;;;;17.92;47.88;102452.03;5088132;28;20383;-72
2022/08/07 02:10:22;;;;;;;2.67;2.13;;;;;;;17.89;48.14;102454.97;5093502;28;20036;-71
2022/08/07 02:13:15;;;;;;;3.95;2.58;;;;;;;17.82;47.95;102459.13;5094798;28;20032;-72
2022/08/07 02:15:49;;;;;;;2.72;2.20;;;;;;;17.81;47.99;102459.25;5093347;28;20036;-71
2022/08/07 02:18:20;;;;;;;2.38;2.00;;;;;;;17.79;48.17;102462.94;5092988;28;20042;-71
2022/08/07 02:20:53;;;;;;;3.17;2.00;;;;;;;17.77;48.50;102464.91;5093485;28;20040;-72
2022/08/07 02:23:27;;;;;;;3.53;2.38;;;;;;;17.75;48.21;102457.84;5093012;28;20097;-73
2022/08/07 02:25:56;;;;;;;3.03;1.80;;;;;;;17.71;48.16;102459.06;5093458;28;20478;-72
2022/08/07 02:28:44;;;;;;;2.45;2.25;;;;;;;17.61;48.44;102453.44;5092624;28;20040;-73
2022/08/07 02:31:14;;;;;;;2.35;2.15;;;;;;;17.56;48.26;102458.34;5093154;28;20492;-72
2022/08/07 02:33:57;;;;;;;2.45;2.25;;;;;;;17.52;48.41;102459.56;5092094;28;20032;-72
2022/08/07 02:36:41;;;;;;;2.90;2.53;;;;;;;17.46;48.12;102460.00;5092511;28;20093;-72
2022/08/07 02:39:15;;;;;;;3.20;2.35;;;;;;;17.40;48.31;102460.47;5093984;28;20042;-72
2022/08/07 02:42:03;;;;;;;5.18;2.47;;;;;;;17.36;48.29;102459.84;5092240;28;20252;-72
2022/08/07 02:44:39;;;;;;;4.57;2.97;;;;;;;17.33;48.33;102451.06;5092845;28;20051;-72
2022/08/07 02:47:17;;;;;;;3.17;2.55;;;;;;;17.28;48.78;102451.38;5093844;28;20039;-71
2022/08/07 02:49:48;;;;;;;2.75;2.50;;;;;;;17.25;48.93;102448.91;5092714;28;20083;-71
2022/08/07 02:52:37;;;;;;;2.65;2.42;;;;;;;17.24;48.74;102449.00;5092520;28;20040;-71
2022/08/07 02:55:13;;;;;;;2.65;2.25;;;;;;;17.24;48.93;102443.59;5093654;28;20126;-72
2022/08/07 02:57:57;;;;;;;3.40;2.55;;;;;;;17.25;48.85;102440.75;5093001;28;20109;-72
2022/08/07 03:00:28;;;;;;;4.15;2.75;;;;;;;17.25;48.93;102435.31;5092155;28;20044;-71
2022/08/07 03:02:58;;;;;;;3.00;2.40;;;;;;;17.27;49.09;102435.22;5092508;28;20498;-72
2022/08/07 03:05:35;;;;;;;2.88;2.25;;;;;;;17.28;48.95;102442.38;5092543;28;20046;-72
2022/08/07 03:08:06;;;;;;;3.05;2.60;;;;;;;17.27;48.98;102437.94;5092489;28;20093;-71
2022/08/07 03:10:41;;;;;;;2.83;2.40;;;;;;;17.23;49.22;102441.84;5092567;28;20044;-71
2022/08/07 03:13:18;;;;;;;2.47;2.15;;;;;;;17.15;49.15;102440.56;5092347;28;20040;-73
2022/08/07 03:15:48;;;;;;;2.40;2.13;;;;;;;17.11;49.09;102439.06;5091709;28;20032;-72
2022/08/07 03:18:28;;;;;;;2.38;2.10;;;;;;;17.10;49.26;102440.03;5092431;28;20064;-71
2022/08/07 03:21:04;;;;;;;2.60;2.30;;;;;;;17.07;49.24;102437.50;5092524;28;20128;-72
2022/08/07 03:23:40;;;;;;;3.45;2.45;;;;;;;17.05;48.99;102444.91;5092267;28;20139;-72
2022/08/07 03:26:31;;;;;;;3.92;2.70;;;;;;;17.05;49.13;102438.59;5092217;28;20025;-72
2022/08/07 03:29:05;;;;;;;3.00;2.60;;;;;;;17.01;49.33;102437.09;5092499;28;20040;-72
2022/08/07 03:31:39;;;;;;;4.15;2.53;;;;;;;17.01;49.54;102443.41;5092253;28;20055;-72
2022/08/07 03:34:16;;;;;;;2.90;2.25;;;;;;;17.01;49.41;102445.25;5092115;28;20048;-72
2022/08/07 03:36:52;;;;;;;3.10;2.60;;;;;;;17.01;49.09;102448.81;5092211;28;20044;-72
2022/08/07 03:39:22;;;;;;;4.35;2.60;;;;;;;17.01;49.44;102448.81;5092333;28;20040;-72
2022/08/07 03:42:10;;;;;;;3.10;2.60;;;;;;;17.01;49.35;102443.41;5091818;28;20036;-72
2022/08/07 03:44:41;;;;;;;2.70;2.30;;;;;;;17.00;49.52;102438.06;5090915;28;20043;-72
2022/08/07 03:47:18;;;;;;;2.70;2.20;;;;;;;17.00;49.58;102432.66;5091630;28;20047;-70
2022/08/07 03:49:47;;;;;;;2.75;2.20;;;;;;;16.98;49.28;102437.31;5075845;28;20040;-70
2022/08/07 03:52:25;;;;;;;3.95;2.53;;;;;;;16.96;49.59;102448.28;5092143;28;20055;-71
2022/08/07 03:54:58;;;;;;;3.42;2.42;;;;;;;16.93;49.23;102432.22;5091875;28;20078;-70
2022/08/07 03:57:36;;;;;;;2.75;2.33;;;;;;;16.86;49.21;102440.94;5092033;28;20040;-71
2022/08/07 04:00:28;;;;;;;4.00;2.85;;;;;;;16.75;49.67;102437.13;5092109;28;20130;-71
2022/08/07 04:03:05;;;;;;;4.13;2.47;;;;;;;16.70;49.71;102435.75;5075698;28;20397;-71
2022/08/07 04:05:37;;;;;;;2.92;2.60;;;;;;;16.66;49.80;102448.66;5088674;28;20036;-71
2022/08/07 04:08:14;;;;;;;3.38;2.60;;;;;;;16.63;49.71;102448.84;5072017;28;20040;-71
2022/08/07 04:10:47;;;;;;;2.88;2.58;;;;;;;16.63;49.50;102450.69;5071872;28;20041;-71
2022/08/07 04:13:43;;;;;;;3.10;2.60;;;;;;;16.62;50.13;102452.53;5073900;28;20039;-71
2022/08/07 04:16:32;;;;;;;6.32;3.13;;;;;;;16.62;49.75;102447.09;5090352;28;20119;-71
2022/08/07 04:19:03;;;;;;;3.28;2.65;;;;;;;16.64;50.20;102444.28;5089957;28;20465;-70
2022/08/07 04:21:46;;;;;;;3.60;2.88;;;;;;;16.64;50.08;102453.28;5090694;28;20406;-70
2022/08/07 04:24:40;;;;;;;4.13;2.92;;;;;;;16.66;50.30;102459.50;5090576;28;20047;-71
2022/08/07 04:27:10;;;;;;;2.95;2.65;;;;;;;16.66;50.09;102456.78;5091075;28;20040;-71
2022/08/07 04:29:53;;;;;;;6.47;2.67;;;;;;;16.67;49.89;102460.38;5091377;28;20117;-71
2022/08/07 04:32:55;;;;;;;3.55;2.95;;;;;;;16.67;50.07;102460.38;5086820;28;20148;-71
2022/08/07 04:35:27;;;;;;;3.67;2.97;;;;;;;16.67;49.90;102454.94;5090682;28;20047;-70
2022/08/07 04:38:06;;;;;;;3.20;2.90;;;;;;;16.66;49.98;102461.34;5074640;28;20036;-70
2022/08/07 04:40:41;;;;;;;2.92;2.40;;;;;;;16.63;49.91;102461.53;5089266;28;20036;-70
2022/08/07 04:43:34;;;;;;;4.15;2.63;;;;;;;16.50;50.18;102458.81;5088580;28;20097;-70
2022/08/07 04:46:27;;;;;;;3.28;2.78;;;;;;;16.39;49.64;102459.56;5090046;28;20036;-71
2022/08/07 04:49:17;;;;;;;3.85;2.53;;;;;;;16.30;49.97;102468.31;5090035;27;20124;-71
2022/08/07 04:52:26;;;;;;;5.15;3.25;;;;;;;16.24;50.41;102474.16;5069534;28;20055;-70
2022/08/07 04:55:16;;;;;;;3.60;3.00;;;;;;;16.18;50.49;102478.19;5086699;28;20561;-70
2022/08/07 04:58:18;;;;;;;4.00;3.35;;;;;;;16.19;50.97;102476.34;5091176;28;20036;-71
2022/08/07 05:01:15;;;;;;;3.90;3.47;;;;;;;16.25;50.63;102484.03;5093927;28;20050;-71
2022/08/07 05:04:02;;;;;;;4.57;3.30;;;;;;;16.29;50.69;102481.97;5093799;28;20139;-71
2022/08/07 05:06:52;;;;;;;5.18;3.63;;;;;;;16.32;50.45;102482.63;5093806;28;20078;-70
2022/08/07 05:09:31;;;;;;;4.43;3.70;;;;;;;16.35;50.71;102477.03;5093435;28;20072;-71
2022/08/07 05:12:20;;;;;;;4.70;3.60;;;;;;;16.37;51.09;102471.50;5093659;28;20059;-71
2022/08/07 05:15:17;;;;;;;6.05;4.25;;;;;;;16.38;51.31;102468.69;5093704;28;20036;-72
2022/08/07 05:18:06;;;;;;;6.47;4.63;;;;;;;16.43;51.51;102468.38;5093647;28;20040;-72
2022/08/07 05:20:46;;;;;;;5.88;4.20;;;;;;;16.48;51.60;102480.63;5093784;28;20047;-71
2022/08/07 05:23:40;;;;;;;6.35;5.10;;;;;;;16.53;51.98;102483.00;5093711;28;20059;-70
2022/08/07 05:26:17;;;;;;;5.82;5.22;;;;;;;16.60;51.97;102486.16;5093686;28;20040;-72
2022/08/07 05:28:57;;;;;;;8.93;6.10;;;;;;;16.64;51.80;102487.69;5093026;28;20097;-71
2022/08/07 05:31:34;;;;;;;8.95;6.03;;;;;;;16.68;52.00;102489.25;5093237;28;20048;-71
2022/08/07 05:34:11;;;;;;;;;;;;;;;16.70;52.29;102490.00;5094032;28;20118;-71
2022/08/07 05:36:43;;;;;;;7.95;6.43;;;;;;;16.78;52.25;102485.75;5093140;28;19920;-72
2022/08/07 05:39:36;;;;;;;9.85;6.22;;;;;;;16.81;52.12;102493.69;5094136;28;20052;-72
2022/08/07 05:42:23;;;;;;;10.23;7.30;;;;;;;16.84;52.29;102488.03;5093073;28;20039;-72
2022/08/07 05:45:07;;;;;;;10.23;7.15;;;;;;;16.87;52.27;102495.09;5094754;27;20044;-72
2022/08/07 05:47:45;;;;;;;8.60;7.53;;;;;;;16.92;52.70;102503.78;5094102;28;20028;-72
2022/08/07 05:50:33;;;;;;;;;;;;;;;16.96;52.50;102502.56;5093625;28;20051;-72
2022/08/07 05:53:03;;;;;;;10.88;8.00;;;;;;;17.06;52.32;102497.34;5092938;28;20336;-73
2022/08/07 05:55:32;;;;;;;11.27;8.43;;;;;;;17.09;52.37;102498.03;5093022;28;20066;-72
2022/08/07 05:58:22;;;;;;;9.88;7.93;;;;;;;17.14;52.69;102498.56;5094030;28;20111;-73
2022/08/07 06:01:10;;;;;;;9.77;7.80;;;;;;;17.19;53.04;102490.06;5092992;28;20238;-72
2022/08/07 06:03:44;;;;;;;11.93;8.95;;;;;;;17.25;53.26;102492.34;5092817;28;20044;-70
2022/08/07 06:06:35;;;;;;;12.63;9.20;;;;;;;17.35;53.46;102506.13;5091954;28;20044;-70
2022/08/07 06:09:07;;;;;;;11.10;8.85;;;;;;;17.43;53.45;102504.56;5091655;28;20494;-70
2022/08/07 06:11:40;;;;;;;12.35;8.85;;;;;;;17.53;53.50;102507.47;5092203;28;20067;-70
2022/08/07 06:14:08;;;;;;;12.25;8.88;;;;;;;17.61;53.81;102498.75;5091996;28;20102;-69
2022/08/07 06:16:48;;;;;;;11.23;8.50;;;;;;;17.69;53.62;102508.09;5092309;28;20044;-69
2022/08/07 06:19:24;;;;;;;10.98;8.02;;;;;;;17.77;53.76;102502.97;5092604;28;20054;-70
2022/08/07 06:22:10;;;;;;;12.55;9.40;;;;;;;17.90;54.08;102507.50;5091970;28;20051;-71
2022/08/07 06:24:57;;;;;;;11.10;7.90;;;;;;;18.04;53.74;102507.31;5091597;28;20048;-69
2022/08/07 06:27:28;;;;;;;13.50;7.90;;;;;;;18.17;53.68;102499.94;5092169;28;20048;-76
2022/08/07 06:30:15;;;;;;;10.73;8.07;;;;;;;18.33;54.00;102511.38;5078380;28;20056;-72
2022/08/07 06:33:07;;;;;;;12.38;8.02;;;;;;;18.54;53.57;102506.13;5091842;28;20143;-74
2022/08/07 06:35:44;;;;;;;11.10;7.68;;;;;;;18.71;53.45;102510.28;5092000;28;20068;-73
2022/08/07 06:38:31;;;;;;;11.40;8.35;;;;;;;18.85;53.40;102509.19;5092020;28;20036;-73
2022/08/07 06:41:04;;;;;;;13.10;8.05;;;;;;;18.96;53.55;102498.31;5092005;28;20131;-73
2022/08/07 06:43:42;;;;;;;11.00;7.65;;;;;;;19.12;53.37;102501.53;5091890;28;20464;-73
2022/08/07 06:46:25;;;;;;;9.18;7.30;;;;;;;19.29;53.20;102492.84;5093490;28;20039;-73
2022/08/07 06:49:01;;;;;;;11.07;7.47;;;;;;;19.52;52.93;102496.47;5091729;28;20047;-74
2022/08/07 06:51:34;;;;;;;11.13;7.35;;;;;;;19.73;52.91;102490.22;5093187;28;20382;-74
2022/08/07 06:54:17;;;;;;;8.50;7.03;;;;;;;19.89;52.61;102486.06;5091815;28;20130;-74
2022/08/07 06:57:06;;;;;;;10.38;7.90;;;;;;;20.06;52.46;102495.53;5080550;28;20042;-73
2022/08/07 06:59:39;;;;;;;8.95;7.20;;;;;;;20.21;52.56;102493.41;5095472;28;20036;-75
2022/08/07 07:02:27;;;;;;;12.80;7.85;;;;;;;20.44;52.01;102491.44;5096260;28;20032;-75
2022/08/07 07:05:14;;;;;;;8.88;7.53;;;;;;;20.68;51.98;102483.81;5091428;28;20623;-75
2022/08/07 07:08:01;;;;;;;9.85;7.43;;;;;;;20.92;51.40;102480.81;5091635;28;20036;-74
2022/08/07 07:10:34;;;;;;;10.30;7.85;;;;;;;21.09;51.54;102482.03;5091489;28;20036;-75
2022/08/07 07:13:15;;;;;;;10.32;8.23;;;;;;;21.20;50.90;102476.47;5091307;28;20486;-74
2022/08/07 07:16:10;;;;;;;12.90;8.55;;;;;;;21.36;50.90;102476.84;5086477;28;20031;-74
2022/08/07 07:18:45;;;;;;;9.45;7.85;;;;;;;21.57;50.75;102487.72;5093023;28;20478;-75
2022/08/07 07:21:15;;;;;;;9.80;7.90;;;;;;;21.77;50.29;102485.88;5091669;28;20042;-75
2022/08/07 07:23:48;;;;;;;11.82;8.93;;;;;;;21.97;50.11;102487.59;5074878;28;20496;-75
2022/08/07 07:26:39;;;;;;;12.30;9.15;;;;;;;22.13;49.79;102482.44;5092432;28;20087;-76
2022/08/07 07:29:12;;;;;;;9.75;7.68;;;;;;;22.25;49.39;102488.63;5091522;28;20047;-75
2022/08/07 07:32:04;;;;;;;10.88;7.53;;;;;;;22.36;49.43;102488.50;5092026;28;20043;-77
2022/08/07 07:34:43;;;;;;;9.50;7.05;;;;;;;22.42;48.92;102482.44;5092647;28;20036;-81
2022/08/07 07:37:12;;;;;;;9.60;6.63;;;;;;;22.52;48.66;102485.16;5091878;27;20109;-78
2022/08/07 07:40:04;;;;;;;8.45;6.57;;;;;;;22.72;48.43;102475.03;5092055;28;20465;-75
2022/08/07 07:42:42;;;;;;;13.15;6.80;;;;;;;22.92;48.48;102475.84;5090534;28;20044;-78
2022/08/07 07:45:31;;;;;;;7.25;6.15;;;;;;;23.06;47.82;102459.81;5090807;28;20048;-78
2022/08/07 07:48:23;;;;;;;7.07;5.97;;;;;;;23.23;47.55;102465.50;5090552;28;20044;-77
2022/08/07 07:51:05;;;;;;;8.60;6.10;;;;;;;23.34;47.39;102470.78;5091864;28;20431;-77
2022/08/07 07:53:40;;;;;;;8.10;6.05;;;;;;;23.43;46.99;102467.13;5091818;28;20398;-77
2022/08/07 07:56:21;;;;;;;6.60;5.72;;;;;;;23.54;46.74;102461.41;5091591;28;20173;-77
2022/08/07 07:58:58;;;;;;;7.43;5.60;;;;;;;23.68;46.67;102458.16;5091838;28;20115;-77
2022/08/07 08:01:27;;;;;;;11.20;5.47;;;;;;;23.82;46.40;102458.69;5090347;28;20127;-78
2022/08/07 08:04:16;;;;;;;6.35;5.07;;;;;;;23.98;46.03;102458.81;5090183;28;20043;-77
2022/08/07 08:06:45;;;;;;;7.03;5.53;;;;;;;24.15;45.74;102455.19;5090257;28;20040;-77
2022/08/07 08:09:23;;;;;;;6.72;5.60;;;;;;;24.35;45.51;102455.91;5091292;27;20104;-77
2022/08/07 08:11:53;;;;;;;6.30;5.35;;;;;;;24.50;44.70;102451.53;5091465;28;20105;-77
2022/08/07 08:14:31;;;;;;;5.70;4.32;;;;;;;24.58;44.48;102451.63;5091035;28;20448;-77
2022/08/07 08:17:09;;;;;;;6.05;4.75;;;;;;;24.74;44.16;102459.09;5091264;28;20355;-77
2022/08/07 08:19:59;;;;;;;6.53;4.15;;;;;;;24.91;43.96;102460.91;5091280;28;20043;-77
2022/08/07 08:28:25;;;;;;;5.50;4.25;;;;;;;25.33;42.97;102461.00;5091645;28;20115;-76
2022/08/07 08:31:07;;;;;;;5.15;3.80;;;;;;;25.55;42.45;102455.91;5090518;28;20040;-78
2022/08/07 08:33:45;;;;;;;6.72;3.85;;;;;;;25.73;42.19;102459.41;5090042;28;20072;-77
2022/08/07 08:36:17;;;;;;;7.97;3.90;;;;;;;25.89;41.59;102462.19;5073375;28;20062;-78
2022/08/07 08:38:53;;;;;;;5.68;4.10;;;;;;;25.99;41.36;102473.03;5091204;27;20062;-70
2022/08/07 08:41:55;;;;;;;3.92;3.13;;;;;;;26.01;41.04;102467.34;5090765;28;20036;-77
2022/08/07 08:44:51;;;;;;;7.65;3.45;;;;;;;26.06;40.78;102470.47;5090057;28;20048;-77
2022/08/07 08:47:26;;;;;;;5.18;3.22;;;;;;;26.20;40.63;102464.28;5089896;28;20054;-77
2022/08/07 08:50:20;;;;;;;4.53;2.95;;;;;;;26.32;40.34;102457.38;5090980;28;20097;-78
2022/08/07 08:53:18;;;;;;;5.22;4.07;;;;;;;26.54;40.04;102456.69;5091217;28;20069;-77
2022/08/07 08:55:56;;;;;;;6.22;3.88;;;;;;;26.72;39.98;102453.72;5091241;28;20044;-77
2022/08/07 08:58:49;;;;;;;5.00;3.65;;;;;;;26.94;39.71;102457.66;5090923;28;20052;-77
2022/08/07 09:01:43;;;;;;;4.05;3.00;;;;;;;27.14;39.56;102455.38;5090926;28;20055;-77
2022/08/07 09:04:42;;;;;;;4.10;2.95;;;;;;;27.20;39.11;102447.25;5089888;28;20048;-76
2022/08/07 09:07:23;;;;;;;6.43;3.47;;;;;;;27.21;38.76;102442.59;5090578;28;20086;-79
2022/08/07 09:10:16;;;;;;;5.30;3.60;;;;;;;27.13;38.11;102443.47;5089635;28;20052;-79
2022/08/07 09:13:18;;;;;;;4.28;3.08;;;;;;;27.16;37.98;102442.25;5090921;28;20482;-78
2022/08/07 09:16:34;;;;;;;5.93;2.33;;;;;;;27.21;37.37;102439.81;5087501;28;20052;-79
2022/08/07 09:19:21;;;;;;;6.63;2.58;;;;;;;27.21;37.26;102437.94;5089818;28;20032;-80
2022/08/07 09:22:17;;;;;;;4.60;2.38;;;;;;;27.27;37.38;102436.34;5090480;28;20043;-79
2022/08/07 09:25:07;;;;;;;;;;;;;;;27.33;37.56;102437.53;5090190;28;20418;-78
2022/08/07 09:28:06;;;;;;;4.38;2.08;;;;;;;27.37;36.85;102436.97;5089593;28;19920;-79
2022/08/07 09:31:06;;;;;;;3.03;2.00;;;;;;;27.38;36.83;102429.56;5089717;28;20393;-79
2022/08/07 09:33:50;;;;;;;3.55;2.38;;;;;;;27.42;36.65;102422.63;5091165;28;20032;-80
2022/08/07 09:36:32;;;;;;;3.90;2.90;;;;;;;27.41;36.59;102431.94;5089562;28;20117;-79
2022/08/07 09:39:02;;;;;;;4.18;2.20;;;;;;;27.43;36.66;102429.88;5089908;28;20044;-79
2022/08/07 09:42:26;;;;;;;9.50;3.42;;;;;;;27.60;36.61;102431.53;5090723;28;20513;-80
2022/08/07 09:45:11;;;;;;;4.47;2.55;;;;;;;27.88;36.64;102422.72;5094351;28;20048;-78
2022/08/07 09:48:19;;;;;;;5.47;3.25;;;;;;;27.96;35.49;102428.19;5093606;28;20032;-78
2022/08/07 09:51:19;;;;;;;3.90;2.63;;;;;;;27.90;35.40;102428.91;5077603;28;20138;-78
2022/08/07 09:54:37;;;;;;;4.35;2.88;;;;;;;27.78;34.93;102418.31;5094432;28;20040;-77
2022/08/07 09:57:36;;;;;;;3.20;2.72;;;;;;;27.69;35.21;102416.66;5109063;28;20466;-77
2022/08/07 10:00:15;;;;;;;3.90;2.72;;;;;;;27.65;35.49;102409.78;5094386;28;20490;-78
2022/08/07 10:02:47;;;;;;;4.47;3.72;;;;;;;27.58;35.09;102408.75;5072400;28;20142;-79
2022/08/07 10:06:03;;;;;;;4.93;2.95;;;;;;;27.49;35.11;102398.78;5072762;28;20048;-78
2022/08/07 10:09:05;;;;;;;5.40;2.97;;;;;;;27.56;34.99;102394.28;5074237;28;20037;-77
2022/08/07 10:11:50;;;;;;;4.32;3.10;;;;;;;27.68;35.15;102392.00;5072905;28;20036;-78
2022/08/07 10:14:57;;;;;;;4.13;2.90;;;;;;;27.78;35.10;102390.69;5081118;28;20044;-77
2022/08/07 10:17:50;;;;;;;5.40;3.40;;;;;;;27.90;34.78;102382.84;5094494;28;20048;-77
2022/08/07 10:20:50;;;;;;;4.90;2.70;;;;;;;28.02;34.82;102386.00;5094529;28;20040;-76
2022/08/07 10:23:43;;;;;;;3.90;2.50;;;;;;;28.13;34.77;102388.31;5094856;28;20102;-78
2022/08/07 10:26:36;;;;;;;3.90;2.88;;;;;;;28.23;34.46;102379.75;5094492;28;20032;-76
2022/08/07 10:29:24;;;;;;;3.63;2.70;;;;;;;28.34;34.17;102385.75;5094736;28;20068;-76
2022/08/07 10:32:39;;;;;;;4.93;2.88;;;;;;;28.31;33.55;102380.59;5091887;28;20035;-80
2022/08/07 10:35:43;;;;;;;5.03;3.10;;;;;;;28.33;33.79;102380.41;5022932;28;20474;-78
2022/08/07 10:38:50;;;;;;;4.97;3.05;;;;;;;28.24;33.52;102387.94;5071629;28;20561;-80
2022/08/07 10:41:32;;;;;;;5.47;3.33;;;;;;;28.12;33.23;102375.56;5073381;28;20040;-80
2022/08/07 10:44:38;;;;;;;3.35;2.45;;;;;;;28.05;33.47;102380.97;5091929;28;20040;-80
2022/08/07 10:47:24;;;;;;;6.35;3.85;;;;;;;28.03;33.23;102376.69;5092142;28;20047;-80
2022/08/07 10:50:31;;;;;;;5.25;2.95;;;;;;;28.08;33.25;102368.69;5092771;28;20039;-80
2022/08/07 10:53:15;;;;;;;4.43;2.60;;;;;;;28.20;32.97;102366.31;5092877;28;20062;-78
2022/08/07 10:56:10;;;;;;;3.67;2.78;;;;;;;28.30;32.94;102353.16;5092503;28;20048;-80
2022/08/07 10:59:32;;;;;;;6.18;3.40;;;;;;;28.51;33.04;102356.03;5091323;28;20040;-84
2022/08/07 11:02:36;;;;;;;3.47;2.80;;;;;;;28.54;32.61;102358.41;5091492;28;20506;-85
2022/08/07 11:05:42;;;;;;;4.45;2.33;;;;;;;28.52;32.72;102348.59;5091199;28;20047;-80
2022/08/07 11:08:31;;;;;;;2.60;2.20;;;;;;;28.57;32.58;102344.19;5092654;28;20047;-83
2022/08/07 11:11:02;;;;;;;3.97;2.30;;;;;;;28.67;32.35;102346.66;5092265;28;20040;-85
2022/08/07 11:13:44;;;;;;;3.35;2.40;;;;;;;28.75;32.46;102341.03;5092573;28;20047;-83
2022/08/07 11:16:37;;;;;;;4.18;2.78;;;;;;;28.89;32.54;102344.88;5092444;28;20115;-84
2022/08/07 11:19:19;;;;;;;3.03;2.20;;;;;;;28.98;32.01;102344.56;5093139;28;20068;-84
2022/08/07 11:22:16;;;;;;;3.22;2.60;;;;;;;29.08;31.85;102338.75;5090723;28;20301;-81
2022/08/07 11:25:16;;;;;;;3.50;2.45;;;;;;;29.17;31.72;102336.72;5092681;28;20036;-83
2022/08/07 11:28:05;;;;;;;3.45;2.20;;;;;;;29.13;31.34;102329.84;5103837;28;20540;-86
2022/08/07 11:30:57;;;;;;;5.00;2.15;;;;;;;29.21;31.08;102330.59;5090788;28;20336;-80
2022/08/07 11:33:42;;;;;;;3.42;2.08;;;;;;;29.36;31.14;102327.75;5092394;28;20062;-84
2022/08/07 11:36:48;;;;;;;3.83;1.88;;;;;;;29.45;30.38;102315.53;5091868;28;20047;-82
2022/08/07 11:39:31;;;;;;;3.75;2.42;;;;;;;29.57;30.61;102315.88;5100129;28;20452;-82
2022/08/07 11:42:24;;;;;;;3.75;2.00;;;;;;;29.75;30.54;102315.41;5090789;28;20036;-82
2022/08/07 11:45:21;;;;;;;2.83;2.03;;;;;;;29.96;30.12;102315.38;5091340;28;20040;-81
2022/08/07 11:47:55;;;;;;;3.25;2.10;;;;;;;30.00;29.83;102311.13;5092215;28;20114;-81
2022/08/07 11:50:35;;;;;;;6.07;2.33;;;;;;;30.00;29.66;102311.13;5090596;28;20390;-81
2022/08/07 11:53:39;;;;;;;3.33;1.70;;;;;;;29.99;29.94;102307.50;5092236;28;20048;-83
2022/08/07 11:56:44;;;;;;;3.85;1.80;;;;;;;30.00;29.64;102311.13;5076703;28;20055;-82
2022/08/07 11:59:36;;;;;;;2.75;1.73;;;;;;;29.87;29.34;102305.50;5091559;28;20101;-82
2022/08/07 12:03:01;;;;;;;3.10;1.67;;;;;;;29.63;29.44;102302.06;5091696;28;20048;-83
2022/08/07 12:05:41;;;;;;;3.05;2.10;;;;;;;29.50;29.67;102304.72;5090111;28;20040;-80
2022/08/07 12:08:36;;;;;;;5.00;2.05;;;;;;;29.48;29.60;102305.97;5076950;28;20494;-78
2022/08/07 12:11:18;;;;;;;4.40;2.35;;;;;;;29.48;29.77;102301.31;5073946;28;20039;-77
2022/08/07 12:14:15;;;;;;;3.90;1.80;;;;;;;29.62;29.53;102310.59;5090540;28;20067;-79
2022/08/07 12:16:54;;;;;;;2.47;1.70;;;;;;;29.78;29.39;102309.47;5090259;28;20070;-79
2022/08/07 12:19:49;;;;;;;3.22;1.70;;;;;;;29.93;28.94;102288.94;5073375;28;20059;-80
2022/08/07 12:23:07;;;;;;;4.95;2.00;;;;;;;30.19;28.69;102298.50;5089973;28;20507;-79
2022/08/07 12:25:51;;;;;;;2.20;1.83;;;;;;;30.32;28.52;102293.91;5090051;28;20432;-83
2022/08/07 12:28:55;;;;;;;2.67;1.67;;;;;;;30.33;28.29;102290.06;5091790;28;20119;-80
2022/08/07 12:31:40;;;;;;;2.00;1.50;;;;;;;30.31;27.84;102283.03;5091546;28;20062;-80
2022/08/07 12:34:38;;;;;;;2.42;1.38;;;;;;;30.35;28.03;102278.78;5091597;28;20044;-80
2022/08/07 12:37:09;;;;;;;3.22;1.63;;;;;;;30.48;28.07;102284.41;5091020;28;20068;-81
2022/08/07 12:39:57;;;;;;;3.38;1.52;;;;;;;30.63;27.50;102282.38;5090254;28;20056;-81
2022/08/07 12:42:29;;;;;;;4.45;1.83;;;;;;;30.66;27.36;102278.34;5089817;28;20631;-82
2022/08/07 12:45:10;;;;;;;3.45;1.98;;;;;;;30.71;27.23;102274.94;5090339;28;20050;-81
2022/08/07 12:47:55;;;;;;;2.30;1.67;;;;;;;30.79;27.09;102272.84;5091307;27;20460;-84